KPXE

Perry-Houston County Airport

Perry, Georgia, USA
METAR KPXE 181415Z AUTO 00000KT 10SM OVC010 11/10 A3015 RMK AO2 T01090100
Observed Flight Rules
Jan-18 @ 14:15 UTC (24 minutes ago) Marginal Visual Flight Rules
Visibility Clouds
10 miles
  • Overcast at 1,000' AGL
Temperatures Readings
Current 11°C / 52°F
Dewpoint 10°C / 50°F
Humidity 94%
Altimeter 30.15" Hg
Pressure 1021.02 hPa
Elevation 127
METAR KPXE 181415Z AUTO 00000KT 10SM OVC010 11/10 A3015 RMK AO2 T01090100
Observed Flight Rules
Jan-18 @ 14:15 UTC
(24 minutes ago)
MVFR
Clouds
  • Overcast at 1,000' AGL
Temperature Dewpoint
11°C / 52°F 10°C / 50°F
Humidity Altimeter Pressure
94% 30.15" Hg 1021.02 hPa